createdAt,value
2022-10-03T00:00:02.251Z,1.00
2022-10-03T00:02:52.251Z,0.88
2022-10-03T00:05:35.272Z,0.88
2022-10-03T00:08:16.257Z,0.70
2022-10-03T00:10:59.295Z,0.85
2022-10-03T00:13:34.559Z,1.05
2022-10-03T00:16:15.074Z,1.08
2022-10-03T00:18:55.484Z,0.60
2022-10-03T00:21:40.423Z,0.73
2022-10-03T00:24:22.118Z,1.40
2022-10-03T00:26:53.817Z,0.75
2022-10-03T00:29:36.826Z,0.70
2022-10-03T00:32:23.599Z,0.93
2022-10-03T00:35:06.973Z,0.80
2022-10-03T00:37:39.195Z,1.42
2022-10-03T00:40:40.848Z,1.10
2022-10-03T00:43:33.370Z,1.02
2022-10-03T00:46:33.678Z,0.88
2022-10-03T00:49:30.425Z,1.02
2022-10-03T00:52:19.790Z,1.35
2022-10-03T00:55:03.799Z,1.30
2022-10-03T00:57:54.521Z,0.98
2022-10-03T01:00:27.118Z,1.12
2022-10-03T01:03:21.199Z,1.15
2022-10-03T01:06:00.616Z,1.20
2022-10-03T01:09:04.282Z,0.95
2022-10-03T01:11:42.205Z,1.08
2022-10-03T01:14:31.464Z,0.70
2022-10-03T01:17:09.629Z,1.00
2022-10-03T01:20:11.092Z,1.27
2022-10-03T01:22:57.798Z,1.25
2022-10-03T01:25:38.518Z,0.90
2022-10-03T01:28:44.639Z,0.88
2022-10-03T01:31:18.430Z,1.35
2022-10-03T01:33:54.101Z,0.77
2022-10-03T01:36:32.813Z,1.50
2022-10-03T01:39:06.479Z,1.20
2022-10-03T01:41:46.049Z,0.73
2022-10-03T01:44:25.056Z,1.05
2022-10-03T01:46:59.538Z,1.30
2022-10-03T01:49:35.140Z,0.80
2022-10-03T01:52:09.745Z,1.40
2022-10-03T01:54:43.464Z,1.92
2022-10-03T01:57:17.453Z,1.00
2022-10-03T01:59:55.373Z,0.77
2022-10-03T02:02:32.569Z,1.30
2022-10-03T02:05:12.827Z,1.10
2022-10-03T02:07:54.286Z,1.20
2022-10-03T02:10:38.555Z,0.88
2022-10-03T02:13:14.972Z,1.12
2022-10-03T02:15:56.576Z,1.20
2022-10-03T02:18:31.210Z,0.85
2022-10-03T02:21:10.957Z,1.17
2022-10-03T02:23:44.064Z,1.27
2022-10-03T02:26:51.026Z,0.90
2022-10-03T02:29:32.220Z,0.77
2022-10-03T02:32:31.786Z,1.17
2022-10-03T02:35:26.261Z,1.12
2022-10-03T02:38:10.819Z,0.75
2022-10-03T02:40:57.050Z,0.85
2022-10-03T02:43:59.193Z,0.88
2022-10-03T02:47:00.604Z,1.33
2022-10-03T02:50:02.718Z,0.68
2022-10-03T02:53:02.649Z,1.33
2022-10-03T02:56:08.531Z,0.73
2022-10-03T02:59:11.560Z,0.52
2022-10-03T03:01:53.492Z,0.82
2022-10-03T03:05:02.772Z,1.17
2022-10-03T03:07:54.386Z,1.00
2022-10-03T03:10:38.850Z,0.98
2022-10-03T03:13:45.884Z,0.82
2022-10-03T03:16:57.135Z,1.12
2022-10-03T03:19:38.858Z,0.98
2022-10-03T03:22:24.857Z,1.52
2022-10-03T03:25:11.468Z,0.98
2022-10-03T03:27:50.607Z,1.33
2022-10-03T03:30:22.877Z,1.17
2022-10-03T03:33:05.086Z,1.27
2022-10-03T03:35:47.959Z,1.52
2022-10-03T03:38:27.083Z,1.33
2022-10-03T03:41:14.134Z,0.80
2022-10-03T03:44:00.111Z,1.02
2022-10-03T03:46:41.690Z,1.55
2022-10-03T03:49:27.355Z,1.10
2022-10-03T03:52:13.641Z,1.20
2022-10-03T03:55:01.964Z,1.30
2022-10-03T03:57:51.795Z,1.48
2022-10-03T04:00:23.003Z,1.05
2022-10-03T04:03:09.260Z,1.52
2022-10-03T04:05:57.640Z,1.37
2022-10-03T04:08:43.303Z,1.27
2022-10-03T04:11:27.647Z,1.75
2022-10-03T04:14:19.536Z,1.42
2022-10-03T04:17:36.294Z,1.80
2022-10-03T04:20:19.798Z,1.98
2022-10-03T04:23:00.463Z,1.75
2022-10-03T04:25:54.697Z,1.65
2022-10-03T04:28:42.375Z,1.62
2022-10-03T04:31:27.012Z,1.55
2022-10-03T04:34:12.502Z,1.10
2022-10-03T04:37:02.837Z,1.33
2022-10-03T04:39:38.826Z,1.48
2022-10-03T04:42:17.532Z,1.37
2022-10-03T04:45:02.910Z,1.33
2022-10-03T04:47:36.636Z,1.27
2022-10-03T04:50:16.485Z,1.40
2022-10-03T04:52:57.672Z,1.25
2022-10-03T04:55:35.316Z,1.50
2022-10-03T04:58:08.315Z,1.30
2022-10-03T05:00:48.891Z,1.30
2022-10-03T05:03:26.890Z,1.40
2022-10-03T05:05:59.868Z,2.05
2022-10-03T05:08:39.610Z,1.50
2022-10-03T05:11:21.622Z,1.23
2022-10-03T05:14:01.660Z,1.77
2022-10-03T05:16:41.132Z,1.45
2022-10-03T05:19:47.138Z,1.15
2022-10-03T05:22:40.341Z,0.98
2022-10-03T05:25:21.790Z,1.42
2022-10-03T05:27:59.246Z,1.12
2022-10-03T05:30:40.934Z,0.90
2022-10-03T05:33:18.282Z,1.58
2022-10-03T05:36:06.374Z,1.10
2022-10-03T05:38:53.659Z,1.65
2022-10-03T05:41:28.262Z,0.93
2022-10-03T05:44:04.849Z,1.35
2022-10-03T05:46:57.938Z,1.40
2022-10-03T05:49:44.636Z,1.17
2022-10-03T05:52:40.133Z,1.10
2022-10-03T05:55:29.914Z,1.55
2022-10-03T05:58:27.451Z,1.60
2022-10-03T06:01:15.634Z,1.77
2022-10-03T06:04:05.686Z,1.98
2022-10-03T06:06:52.179Z,1.40
2022-10-03T06:09:53.902Z,1.27
2022-10-03T06:12:31.115Z,1.45
2022-10-03T06:15:19.811Z,1.20
2022-10-03T06:18:02.880Z,1.30
2022-10-03T06:21:05.729Z,1.23
2022-10-03T06:23:58.270Z,1.23
2022-10-03T06:26:44.573Z,1.58
2022-10-03T06:29:43.742Z,1.52
2022-10-03T06:32:30.037Z,1.42
2022-10-03T06:35:29.771Z,1.70
2022-10-03T06:38:30.958Z,1.90
2022-10-03T06:41:27.012Z,1.23
2022-10-03T06:44:23.645Z,1.65
2022-10-03T06:47:19.642Z,1.20
2022-10-03T06:50:19.687Z,1.08
2022-10-03T06:53:16.065Z,1.20
2022-10-03T06:56:12.893Z,1.40
2022-10-03T06:59:05.252Z,1.02
2022-10-03T07:01:56.083Z,1.58
2022-10-03T07:04:56.135Z,1.30
2022-10-03T07:08:03.485Z,0.93
2022-10-03T07:10:48.464Z,1.65
2022-10-03T07:14:09.768Z,1.00
2022-10-03T07:17:17.293Z,1.58
2022-10-03T07:20:06.700Z,1.50
2022-10-03T07:23:06.327Z,1.80
2022-10-03T07:25:59.218Z,1.17
2022-10-03T07:29:07.658Z,1.62
2022-10-03T07:31:45.934Z,1.87
2022-10-03T07:34:46.791Z,1.87
2022-10-03T07:37:59.994Z,1.75
2022-10-03T07:40:59.450Z,1.92
2022-10-03T07:43:53.624Z,1.50
2022-10-03T07:47:10.449Z,1.60
2022-10-03T07:49:51.395Z,1.58
2022-10-03T07:52:53.590Z,1.58
2022-10-03T07:56:07.258Z,1.35
2022-10-03T07:59:03.774Z,1.50
2022-10-03T08:01:47.009Z,1.25
2022-10-03T08:04:48.371Z,1.40
2022-10-03T08:07:42.666Z,1.37
2022-10-03T08:10:24.348Z,1.42
2022-10-03T08:13:09.166Z,1.30
2022-10-03T08:15:56.890Z,1.33
2022-10-03T08:18:45.541Z,2.05
2022-10-03T08:21:22.031Z,1.00
2022-10-03T08:24:15.682Z,1.33
2022-10-03T08:27:03.324Z,0.90
2022-10-03T08:30:09.246Z,1.48
2022-10-03T08:33:09.843Z,1.48
2022-10-03T08:35:58.797Z,1.45
2022-10-03T08:38:59.941Z,1.37
2022-10-03T08:42:10.932Z,1.25
2022-10-03T08:45:20.335Z,1.10
2022-10-03T08:48:35.910Z,1.33
2022-10-03T08:51:39.793Z,1.35
2022-10-03T08:54:50.890Z,1.33
2022-10-03T08:57:51.324Z,1.75
2022-10-03T09:00:21.974Z,1.00
2022-10-03T09:03:42.931Z,1.10
2022-10-03T09:07:12.630Z,1.05
2022-10-03T09:10:11.627Z,1.40
2022-10-03T09:13:10.496Z,1.98
2022-10-03T09:16:17.588Z,2.83
2022-10-03T09:19:07.864Z,2.05
2022-10-03T09:22:09.794Z,2.12
2022-10-03T09:25:09.314Z,1.48
2022-10-03T09:27:55.826Z,0.90
2022-10-03T09:30:43.908Z,1.10
2022-10-03T09:33:44.641Z,1.15
2022-10-03T09:36:36.239Z,1.25
2022-10-03T09:39:20.240Z,1.27
2022-10-03T09:42:36.575Z,1.17
2022-10-03T09:45:41.287Z,1.12
2022-10-03T09:48:42.413Z,0.80
2022-10-03T09:51:43.467Z,1.23
2022-10-03T09:54:31.649Z,1.12
2022-10-03T09:57:40.368Z,0.98
2022-10-03T10:00:20.224Z,1.20
2022-10-03T10:03:38.709Z,1.30
2022-10-03T10:06:36.140Z,0.85
2022-10-03T10:09:42.145Z,1.25
2022-10-03T10:12:43.366Z,0.75
2022-10-03T10:15:48.766Z,1.20
2022-10-03T10:18:42.875Z,0.75
2022-10-03T10:21:41.720Z,0.95
2022-10-03T10:24:49.731Z,0.90
2022-10-03T10:27:48.896Z,1.05
2022-10-03T10:30:50.674Z,0.93
2022-10-03T10:34:14.319Z,0.93
2022-10-03T10:37:33.043Z,0.60
2022-10-03T10:40:42.129Z,0.90
2022-10-03T10:44:08.762Z,0.65
2022-10-03T10:47:18.110Z,0.98
2022-10-03T10:50:26.038Z,0.75
2022-10-03T10:53:33.128Z,0.82
2022-10-03T10:56:28.287Z,0.80
2022-10-03T10:59:32.438Z,0.70
2022-10-03T11:02:39.713Z,0.62
2022-10-03T11:05:41.377Z,0.80
2022-10-03T11:08:51.890Z,1.08
2022-10-03T11:11:55.776Z,0.73
2022-10-03T11:15:05.913Z,0.70
2022-10-03T11:17:59.750Z,1.90
2022-10-03T11:21:21.279Z,1.35
2022-10-03T11:24:23.328Z,1.80
2022-10-03T11:27:28.860Z,1.65
2022-10-03T11:30:22.935Z,0.65
2022-10-03T11:33:28.073Z,1.20
2022-10-03T11:36:53.964Z,3.35
2022-10-03T11:39:33.098Z,1.90
2022-10-03T11:42:12.454Z,1.65
2022-10-03T11:44:45.708Z,1.35
2022-10-03T11:47:37.027Z,1.50
2022-10-03T11:50:42.874Z,1.42
2022-10-03T11:53:20.667Z,1.30
2022-10-03T11:55:55.479Z,0.75
2022-10-03T11:58:56.332Z,0.85
2022-10-03T12:01:39.195Z,1.10
2022-10-03T12:04:17.734Z,0.80
2022-10-03T12:07:27.799Z,1.02
2022-10-03T12:10:04.135Z,0.90
2022-10-03T12:12:42.259Z,0.60
2022-10-03T12:15:35.298Z,1.10
2022-10-03T12:18:08.989Z,1.08
2022-10-03T12:21:07.149Z,0.80
2022-10-03T12:24:14.495Z,0.70
2022-10-03T12:26:52.962Z,0.95
2022-10-03T12:29:23.091Z,1.08
2022-10-03T12:32:05.846Z,0.80
2022-10-03T12:34:40.527Z,0.75
2022-10-03T12:37:29.840Z,0.80
2022-10-03T12:40:06.053Z,1.05
2022-10-03T12:42:38.316Z,0.50
2022-10-03T12:45:16.532Z,0.73
2022-10-03T12:48:01.780Z,0.70
2022-10-03T12:50:55.080Z,1.02
2022-10-03T12:53:35.775Z,0.88
2022-10-03T12:56:08.636Z,0.50
2022-10-03T12:58:53.455Z,0.68
2022-10-03T13:01:31.447Z,0.70
2022-10-03T13:04:05.767Z,0.82
2022-10-03T13:07:09.304Z,0.70
2022-10-03T13:09:52.763Z,0.90
2022-10-03T13:12:34.270Z,0.80
2022-10-03T13:15:41.690Z,0.40
2022-10-03T13:18:25.160Z,0.52
2022-10-03T13:21:27.126Z,0.77
2022-10-03T13:24:04.607Z,1.10
2022-10-03T13:26:49.236Z,0.80
2022-10-03T13:29:26.850Z,0.60
2022-10-03T13:32:19.004Z,0.50
2022-10-03T13:34:58.156Z,0.60
2022-10-03T13:37:33.791Z,0.88
2022-10-03T13:40:09.194Z,0.60
2022-10-03T13:42:42.346Z,0.60
2022-10-03T13:45:16.262Z,1.00
2022-10-03T13:47:47.982Z,0.57
2022-10-03T13:50:22.809Z,0.90
2022-10-03T13:53:00.921Z,0.60
2022-10-03T13:55:38.022Z,1.30
2022-10-03T13:58:26.193Z,0.93
2022-10-03T14:01:21.675Z,1.67
2022-10-03T14:04:08.052Z,1.20
2022-10-03T14:06:41.312Z,0.80
2022-10-03T14:09:34.248Z,1.05
2022-10-03T14:12:08.585Z,0.68
2022-10-03T14:14:57.454Z,0.50
2022-10-03T14:17:37.263Z,0.47
2022-10-03T14:20:21.005Z,0.60
2022-10-03T14:23:03.127Z,0.82
2022-10-03T14:25:39.377Z,0.50
2022-10-03T14:28:15.597Z,0.60
2022-10-03T14:31:05.914Z,0.32
2022-10-03T14:33:40.617Z,0.57
2022-10-03T14:36:26.120Z,0.70
2022-10-03T14:39:03.928Z,0.57
2022-10-03T14:41:46.790Z,0.55
2022-10-03T14:44:19.921Z,0.70
2022-10-03T14:46:53.954Z,0.55
2022-10-03T14:49:52.308Z,0.45
2022-10-03T14:52:27.856Z,0.43
2022-10-03T14:54:57.980Z,0.60
2022-10-03T14:57:47.877Z,0.55
2022-10-03T15:00:27.725Z,0.80
2022-10-03T15:02:56.483Z,0.80
2022-10-03T15:05:36.084Z,0.43
2022-10-03T15:08:14.569Z,0.45
2022-10-03T15:10:46.103Z,0.95
2022-10-03T15:13:19.136Z,1.20
2022-10-03T15:15:49.232Z,0.85
2022-10-03T15:18:23.025Z,0.85
2022-10-03T15:20:54.555Z,1.05
2022-10-03T15:23:28.773Z,0.95
2022-10-03T15:25:58.607Z,1.83
2022-10-03T15:28:31.815Z,0.75
2022-10-03T15:31:09.940Z,1.23
2022-10-03T15:33:40.224Z,0.80
2022-10-03T15:36:15.568Z,0.68
2022-10-03T15:38:48.574Z,0.50
2022-10-03T15:41:18.475Z,0.70
2022-10-03T15:43:56.983Z,0.47
2022-10-03T15:46:34.662Z,0.93
2022-10-03T15:49:08.650Z,0.65
2022-10-03T15:51:39.529Z,0.80
2022-10-03T15:54:10.185Z,0.57
2022-10-03T15:56:41.237Z,0.32
2022-10-03T15:59:21.567Z,0.32
2022-10-03T16:01:55.499Z,0.68
2022-10-03T16:04:26.542Z,0.80
2022-10-03T16:07:03.226Z,0.85
2022-10-03T16:09:40.250Z,1.15
2022-10-03T16:12:27.797Z,1.30
2022-10-03T16:15:06.566Z,1.70
2022-10-03T16:17:44.351Z,1.17
2022-10-03T16:20:21.403Z,1.60
2022-10-03T16:22:52.529Z,2.10
2022-10-03T16:25:25.189Z,1.90
2022-10-03T16:27:58.352Z,1.70
2022-10-03T16:30:33.293Z,1.70
2022-10-03T16:33:06.895Z,1.40
2022-10-03T16:35:41.595Z,0.95
2022-10-03T16:38:21.657Z,1.70
2022-10-03T16:40:54.936Z,1.20
2022-10-03T16:43:24.685Z,1.37
2022-10-03T16:45:56.646Z,1.10
2022-10-03T16:48:46.394Z,0.77
2022-10-03T16:51:21.460Z,1.62
2022-10-03T16:53:53.405Z,1.30
2022-10-03T16:56:26.181Z,1.25
2022-10-03T16:58:56.406Z,0.60
2022-10-03T17:01:32.841Z,0.50
2022-10-03T17:04:15.984Z,0.50
2022-10-03T17:06:49.324Z,0.60
2022-10-03T17:09:25.693Z,0.35
2022-10-03T17:11:58.034Z,0.77
2022-10-03T17:14:28.351Z,0.90
2022-10-03T17:17:04.829Z,0.80
2022-10-03T17:19:37.715Z,0.62
2022-10-03T17:22:15.018Z,0.62
2022-10-03T17:24:48.854Z,0.70
2022-10-03T17:27:26.100Z,1.33
2022-10-03T17:29:59.718Z,0.60
2022-10-03T17:32:40.638Z,0.62
2022-10-03T17:35:16.359Z,0.70
2022-10-03T17:38:15.118Z,0.90
2022-10-03T17:40:58.522Z,0.70
2022-10-03T17:43:33.181Z,0.98
2022-10-03T17:46:06.317Z,0.93
2022-10-03T17:48:40.683Z,0.90
2022-10-03T17:51:31.428Z,0.50
2022-10-03T17:54:04.347Z,0.50
2022-10-03T17:56:35.554Z,0.70
2022-10-03T17:59:08.720Z,0.57
2022-10-03T18:01:40.671Z,0.82
2022-10-03T18:04:18.861Z,0.77
2022-10-03T18:06:50.334Z,0.73
2022-10-03T18:09:29.632Z,0.80
2022-10-03T18:12:12.152Z,0.62
2022-10-03T18:14:51.988Z,0.85
2022-10-03T18:17:25.900Z,0.80
2022-10-03T18:20:09.131Z,0.55
2022-10-03T18:22:41.576Z,0.52
2022-10-03T18:25:34.468Z,0.50
2022-10-03T18:28:12.991Z,0.60
2022-10-03T18:30:47.378Z,0.68
2022-10-03T18:33:19.253Z,0.65
2022-10-03T18:35:50.541Z,0.95
2022-10-03T18:38:22.453Z,0.60
2022-10-03T18:40:53.830Z,0.88
2022-10-03T18:43:32.827Z,0.80
2022-10-03T18:46:12.179Z,0.90
2022-10-03T18:49:09.100Z,0.55
2022-10-03T18:51:42.625Z,0.40
2022-10-03T18:54:24.424Z,0.62
2022-10-03T18:57:06.100Z,0.40
2022-10-03T18:59:39.683Z,0.47
2022-10-03T19:02:20.008Z,0.45
2022-10-03T19:04:54.275Z,0.50
2022-10-03T19:07:25.873Z,0.35
2022-10-03T19:10:26.738Z,0.80
2022-10-03T19:13:02.818Z,0.45
2022-10-03T19:15:43.870Z,0.47
2022-10-03T19:18:22.610Z,0.50
2022-10-03T19:20:54.022Z,0.90
2022-10-03T19:23:28.168Z,0.82
2022-10-03T19:25:59.480Z,0.82
2022-10-03T19:28:33.543Z,0.80
2022-10-03T19:31:06.635Z,0.70
2022-10-03T19:33:42.675Z,0.60
2022-10-03T19:36:17.601Z,0.60
2022-10-03T19:38:48.755Z,0.70
2022-10-03T19:41:31.680Z,0.50
2022-10-03T19:44:05.222Z,0.93
2022-10-03T19:46:48.710Z,0.52
2022-10-03T19:49:27.725Z,0.62
2022-10-03T19:52:12.465Z,0.70
2022-10-03T19:54:52.736Z,0.40
2022-10-03T19:57:24.292Z,1.05
2022-10-03T19:59:54.730Z,0.93
2022-10-03T20:02:24.707Z,0.80
2022-10-03T20:05:19.771Z,0.50
2022-10-03T20:07:53.030Z,0.80
2022-10-03T20:10:38.203Z,0.80
2022-10-03T20:13:08.809Z,0.70
2022-10-03T20:15:43.916Z,0.70
2022-10-03T20:18:21.566Z,0.50
2022-10-03T20:20:53.123Z,0.70
2022-10-03T20:23:24.393Z,0.60
2022-10-03T20:26:00.237Z,0.57
2022-10-03T20:28:45.725Z,0.90
2022-10-03T20:31:22.833Z,0.93
2022-10-03T20:33:53.025Z,0.52
2022-10-03T20:36:24.270Z,0.73
2022-10-03T20:39:05.227Z,0.55
2022-10-03T20:41:44.832Z,0.57
2022-10-03T20:44:19.503Z,0.88
2022-10-03T20:46:50.640Z,0.75
2022-10-03T20:49:29.362Z,0.80
2022-10-03T20:52:00.418Z,0.60
2022-10-03T20:54:35.339Z,0.50
2022-10-03T20:57:09.666Z,0.68
2022-10-03T20:59:45.787Z,0.73
2022-10-03T21:02:24.030Z,0.43
2022-10-03T21:04:57.852Z,0.50
2022-10-03T21:07:33.376Z,0.60
2022-10-03T21:10:09.177Z,0.60
2022-10-03T21:12:45.624Z,0.50
2022-10-03T21:15:21.106Z,0.40
2022-10-03T21:17:51.068Z,0.50
2022-10-03T21:20:23.991Z,0.70
2022-10-03T21:22:56.889Z,0.57
2022-10-03T21:25:31.186Z,0.52
2022-10-03T21:28:03.390Z,0.55
2022-10-03T21:30:52.086Z,0.57
2022-10-03T21:33:27.623Z,0.60
2022-10-03T21:35:56.012Z,0.95
2022-10-03T21:38:28.104Z,1.17
2022-10-03T21:41:09.690Z,0.50
2022-10-03T21:43:48.464Z,0.95
2022-10-03T21:46:22.459Z,1.08
2022-10-03T21:49:07.936Z,0.60
2022-10-03T21:51:43.313Z,0.70
2022-10-03T21:54:28.662Z,0.62
2022-10-03T21:57:06.493Z,0.50
2022-10-03T21:59:58.817Z,1.12
2022-10-03T22:02:35.429Z,0.28
2022-10-03T22:05:13.795Z,0.45
2022-10-03T22:07:43.918Z,0.57
2022-10-03T22:10:22.050Z,0.85
2022-10-03T22:12:53.384Z,0.70
2022-10-03T22:15:32.616Z,0.70
2022-10-03T22:18:05.396Z,0.43
2022-10-03T22:20:35.416Z,0.90
2022-10-03T22:23:23.880Z,0.40
2022-10-03T22:26:08.700Z,0.30
2022-10-03T22:28:49.495Z,0.52
2022-10-03T22:31:27.533Z,0.57
2022-10-03T22:34:06.216Z,0.50
2022-10-03T22:36:35.929Z,0.75
2022-10-03T22:39:09.899Z,0.50
2022-10-03T22:41:40.669Z,0.80
2022-10-03T22:44:11.228Z,0.37
2022-10-03T22:46:43.584Z,0.57
2022-10-03T22:49:18.230Z,0.85
2022-10-03T22:51:49.146Z,0.40
2022-10-03T22:54:19.396Z,0.82
2022-10-03T22:56:52.876Z,0.65
2022-10-03T22:59:24.333Z,0.55
2022-10-03T23:01:57.627Z,0.57
2022-10-03T23:04:33.705Z,0.40
2022-10-03T23:07:23.353Z,0.50
2022-10-03T23:10:01.755Z,0.47
2022-10-03T23:12:36.797Z,0.75
2022-10-03T23:15:07.781Z,0.30
2022-10-03T23:17:55.579Z,0.40
2022-10-03T23:20:50.967Z,0.45
2022-10-03T23:23:25.093Z,0.40
2022-10-03T23:26:05.237Z,0.50
2022-10-03T23:28:44.643Z,0.73
2022-10-03T23:31:53.303Z,0.60
2022-10-03T23:34:47.116Z,0.45
2022-10-03T23:37:38.969Z,0.40
2022-10-03T23:40:38.660Z,0.68
2022-10-03T23:43:36.509Z,0.52
2022-10-03T23:46:09.735Z,0.37
2022-10-03T23:48:44.758Z,0.73
2022-10-03T23:51:18.876Z,0.80
2022-10-03T23:53:51.444Z,0.47
2022-10-03T23:56:32.517Z,0.40
2022-10-03T23:59:12.264Z,0.30
